Time;durP1;ratioP1;P1;durP2;ratioP2;P2;SDS_P1;SDS_P2;PMS_P1;PMS_P2;Temp;Humidity;BMP_temperature;BMP_pressure;BME280_temperature;BME280_humidity;BME280_pressure;Samples;Min_cycle;Max_cycle;Signal;HPM_P1;HPM_P2
2021/08/04 00:04:27;;;;;;;3.00;1.75;;;;;;;18.51;60.29;98795.79;263305;1093;115067;-69
2021/08/04 00:09:31;;;;;;;4.40;1.63;;;;;;;18.45;60.16;98791.88;262790;1093;115009;-70
2021/08/04 00:14:34;;;;;;;3.37;1.67;;;;;;;18.37;60.06;98791.77;263534;1092;114701;-71
2021/08/04 00:19:38;;;;;;;3.88;1.55;;;;;;;18.29;60.42;98800.61;262753;1092;115071;-71
2021/08/04 00:24:43;;;;;;;1.90;1.40;;;;;;;18.22;60.31;98787.89;262546;1093;115246;-74
2021/08/04 00:29:52;;;;;;;1.90;1.47;;;;;;;18.15;60.50;98788.48;262205;1093;114844;-71
2021/08/04 00:34:58;;;;;;;2.23;1.63;;;;;;;18.13;61.05;98784.23;261068;1092;114609;-70
2021/08/04 00:40:06;;;;;;;4.30;2.00;;;;;;;18.13;61.27;98787.77;262873;1092;115478;-69
2021/08/04 00:45:12;;;;;;;2.43;1.60;;;;;;;18.12;61.14;98779.86;263351;1093;115334;-69
2021/08/04 00:50:17;;;;;;;2.33;1.80;;;;;;;18.10;61.25;98773.77;262202;1093;114829;-69
2021/08/04 00:55:24;;;;;;;3.10;1.90;;;;;;;18.06;61.28;98780.45;263093;1093;114781;-67
2021/08/04 01:00:29;;;;;;;2.93;1.77;;;;;;;18.00;61.09;98773.80;263039;1092;114906;-68
2021/08/04 01:05:56;;;;;;;3.70;1.80;;;;;;;17.95;61.53;98768.03;261897;1093;115092;-70
2021/08/04 01:11:04;;;;;;;1.67;1.40;;;;;;;17.88;62.01;98764.24;262670;1091;115706;-68
2021/08/04 01:16:18;;;;;;;6.73;1.67;;;;;;;17.89;61.54;98768.63;262749;1092;115184;-73
2021/08/04 01:22:04;;;;;;;3.83;1.73;;;;;;;17.90;62.02;98773.00;263518;1092;114662;-70
2021/08/04 01:27:13;;;;;;;6.67;2.37;;;;;;;17.93;62.08;98756.55;263568;1092;115119;-70
2021/08/04 01:32:18;;;;;;;9.97;2.73;;;;;;;17.98;62.35;98746.20;263271;1091;115337;-69
2021/08/04 01:37:25;;;;;;;3.37;2.20;;;;;;;18.00;62.35;98732.57;263631;1092;115038;-68
2021/08/04 01:42:34;;;;;;;5.00;2.50;;;;;;;17.99;61.92;98731.73;263190;1092;115017;-67
2021/08/04 01:47:39;;;;;;;4.70;2.33;;;;;;;17.94;62.35;98739.42;263204;1092;115472;-70
2021/08/04 01:52:43;;;;;;;3.67;2.10;;;;;;;17.97;62.48;98728.35;262894;1093;115117;-69
2021/08/04 01:57:48;;;;;;;4.73;2.50;;;;;;;17.96;62.03;98732.86;263546;1092;115482;-70
2021/08/04 02:02:52;;;;;;;3.05;2.20;;;;;;;17.98;62.52;98730.04;263512;1091;115377;-69
2021/08/04 02:08:21;;;;;;;4.50;2.40;;;;;;;17.95;62.44;98730.34;263620;1092;114992;-69
2021/08/04 02:13:49;;;;;;;2.97;2.50;;;;;;;17.89;62.62;98739.84;263767;1093;115317;-67
2021/08/04 02:19:22;;;;;;;5.13;2.20;;;;;;;17.83;62.75;98744.97;263444;1092;115110;-69
2021/08/04 02:24:30;;;;;;;3.40;1.93;;;;;;;17.76;62.27;98771.64;263139;1093;115058;-67
2021/08/04 02:29:39;;;;;;;4.67;2.20;;;;;;;17.70;62.90;98764.98;263199;1092;115204;-66
2021/08/04 02:34:43;;;;;;;7.07;2.90;;;;;;;17.68;63.01;98775.04;263551;1092;115304;-68
2021/08/04 02:39:47;;;;;;;5.05;2.28;;;;;;;17.72;63.00;98775.59;263312;1092;115019;-68
2021/08/04 02:44:50;;;;;;;5.40;2.20;;;;;;;17.71;63.07;98777.44;263474;1093;115024;-68
2021/08/04 02:49:54;;;;;;;6.57;2.60;;;;;;;17.70;62.95;98769.53;263131;1093;114777;-67
2021/08/04 02:55:02;;;;;;;5.17;2.63;;;;;;;17.68;63.26;98756.20;263150;1092;114981;-68
2021/08/04 03:00:07;;;;;;;;;;;;;;;17.74;63.45;98757.47;263730;1092;115117;-68
2021/08/04 03:05:11;;;;;;;3.73;2.20;;;;;;;17.77;63.07;98767.13;263399;1092;101495;-67
2021/08/04 03:10:15;;;;;;;3.40;2.50;;;;;;;17.79;63.57;98768.66;263110;1093;115623;-67
2021/08/04 03:15:18;;;;;;;5.57;2.53;;;;;;;17.83;63.61;98764.70;263109;1093;115625;-67
2021/08/04 03:20:22;;;;;;;3.93;2.63;;;;;;;17.83;63.15;98778.16;263478;1092;114794;-67
2021/08/04 03:25:26;;;;;;;8.47;3.07;;;;;;;17.81;63.15;98773.91;263679;1092;114782;-68
2021/08/04 03:30:30;;;;;;;5.73;2.70;;;;;;;17.81;63.76;98774.75;262821;1092;115339;-64
2021/08/04 03:35:33;;;;;;;3.37;1.87;;;;;;;17.77;63.22;98780.59;263479;1092;116064;-64
2021/08/04 03:40:37;;;;;;;5.85;2.30;;;;;;;17.78;63.42;98777.73;263684;1093;115059;-67
2021/08/04 03:45:41;;;;;;;6.97;2.60;;;;;;;17.83;63.79;98780.84;263691;1093;115407;-67
2021/08/04 03:50:44;;;;;;;8.33;4.07;;;;;;;17.89;63.71;98793.69;263371;1093;114983;-70
2021/08/04 03:55:48;;;;;;;7.33;3.27;;;;;;;17.91;64.00;98788.17;263717;1092;115013;-66
2021/08/04 04:00:52;;;;;;;7.07;3.30;;;;;;;17.93;64.34;98791.55;263110;1093;114921;-71
2021/08/04 04:05:57;;;;;;;7.03;3.50;;;;;;;17.92;64.00;98788.02;263384;1092;114538;-71
2021/08/04 04:11:01;;;;;;;6.30;2.93;;;;;;;17.93;63.94;98794.25;263571;1092;115756;-71
2021/08/04 04:16:04;;;;;;;6.97;3.27;;;;;;;17.95;64.15;98792.27;263655;1093;114813;-69
2021/08/04 04:21:08;;;;;;;7.30;3.45;;;;;;;17.95;64.02;98795.80;263631;1092;115283;-66
2021/08/04 04:26:12;;;;;;;6.63;3.70;;;;;;;17.95;64.50;98793.11;263420;1093;115942;-69
2021/08/04 04:31:15;;;;;;;8.60;4.27;;;;;;;17.98;64.12;98794.66;262790;1092;115036;-72
2021/08/04 04:36:19;;;;;;;5.33;3.80;;;;;;;17.98;64.58;98794.66;262361;1092;115262;-69
2021/08/04 04:41:26;;;;;;;8.25;4.28;;;;;;;18.00;64.79;98807.97;263184;1092;115259;-70
2021/08/04 04:46:30;;;;;;;11.43;4.90;;;;;;;18.04;65.46;98812.92;263095;1092;115592;-68
2021/08/04 04:51:34;;;;;;;7.58;4.60;;;;;;;18.09;64.94;98813.31;263234;1093;115125;-69
2021/08/04 04:56:38;;;;;;;6.18;4.98;;;;;;;18.14;65.39;98820.97;263285;1092;115038;-70
2021/08/04 05:01:41;;;;;;;7.97;5.50;;;;;;;18.13;65.11;98828.17;263619;1093;114730;-68
2021/08/04 05:06:45;;;;;;;9.43;5.48;;;;;;;18.17;65.32;98832.30;263010;1092;116571;-69
2021/08/04 05:11:49;;;;;;;11.47;5.53;;;;;;;18.19;65.49;98830.28;263469;1092;114911;-67
2021/08/04 05:16:53;;;;;;;10.60;5.00;;;;;;;18.28;65.43;98827.71;263532;1093;115487;-67
2021/08/04 05:21:56;;;;;;;7.40;5.10;;;;;;;18.33;65.50;98815.47;263640;1092;114969;-67
2021/08/04 05:27:00;;;;;;;11.65;5.45;;;;;;;18.44;65.76;98822.49;263394;1092;115739;-73
2021/08/04 05:32:04;;;;;;;8.37;5.53;;;;;;;18.52;65.88;98827.16;263269;1093;115939;-66
2021/08/04 05:37:08;;;;;;;10.50;5.87;;;;;;;18.55;65.58;98830.39;263383;1092;114953;-73
2021/08/04 05:42:12;;;;;;;10.23;5.40;;;;;;;18.63;65.76;98833.17;261628;1093;114837;-71
2021/08/04 05:47:18;;;;;;;21.53;16.70;;;;;;;19.14;66.94;98830.85;262565;1092;115685;-64
2021/08/04 05:52:22;;;;;;;16.30;10.28;;;;;;;19.77;66.86;98822.61;263028;1093;115590;-68
2021/08/04 05:57:25;;;;;;;13.43;9.57;;;;;;;20.09;65.84;98811.13;263541;1092;115739;-70
2021/08/04 06:02:29;;;;;;;23.63;20.18;;;;;;;20.39;65.20;98805.36;263709;1092;115111;-69
2021/08/04 06:07:33;;;;;;;14.25;10.18;;;;;;;20.53;64.40;98815.56;263637;1093;114897;-67
2021/08/04 06:12:37;;;;;;;14.28;10.33;;;;;;;20.58;64.15;98806.95;263280;1092;115573;-66
2021/08/04 06:17:41;;;;;;;10.57;8.30;;;;;;;20.73;63.72;98789.93;263282;1093;116057;-67
2021/08/04 06:22:54;;;;;;;99.50;77.33;;;;;;;20.71;62.88;98794.65;261935;1092;115731;-68
2021/08/04 06:27:59;;;;;;;14.50;8.55;;;;;;;20.65;62.87;98806.16;261185;1093;114501;-66
2021/08/04 06:33:06;;;;;;;9.33;5.03;;;;;;;20.67;63.05;98808.67;261452;1091;114893;-68
2021/08/04 06:38:16;;;;;;;20.97;13.80;;;;;;;20.79;63.25;98808.20;261853;1092;115502;-68
2021/08/04 06:43:22;;;;;;;116.97;99.13;;;;;;;20.85;62.88;98811.24;261669;1092;115043;-68
2021/08/04 06:48:29;;;;;;;20.07;14.77;;;;;;;20.78;62.74;98811.06;261601;1093;115068;-67
2021/08/04 06:53:50;;;;;;;11.27;5.97;;;;;;;20.85;63.05;98814.79;261544;1093;115278;-73
2021/08/04 06:58:55;;;;;;;15.10;8.33;;;;;;;20.89;62.65;98812.59;261243;1092;115190;-67
2021/08/04 07:04:04;;;;;;;15.33;11.00;;;;;;;20.87;62.49;98801.11;261447;1093;115672;-70
2021/08/04 07:09:11;;;;;;;16.23;6.43;;;;;;;21.01;62.74;98798.59;261221;1092;115203;-68
2021/08/04 07:14:28;;;;;;;36.00;28.43;;;;;;;21.07;62.37;98801.66;261249;1093;114979;-68
2021/08/04 07:19:54;;;;;;;244.77;180.47;;;;;;;21.07;62.28;98807.91;261459;1093;114930;-68
2021/08/04 07:25:03;;;;;;;37.17;20.47;;;;;;;21.08;62.48;98790.64;261615;1093;115666;-70
2021/08/04 07:30:15;;;;;;;36.07;20.67;;;;;;;21.20;62.66;98793.88;261795;1092;114991;-67
2021/08/04 07:35:21;;;;;;;24.90;18.17;;;;;;;21.30;62.50;98786.44;262112;1093;115274;-64
2021/08/04 07:40:25;;;;;;;20.18;9.25;;;;;;;21.42;62.41;98784.25;263432;1093;115473;-72
2021/08/04 07:45:28;;;;;;;247.40;191.73;;;;;;;21.54;62.29;98790.17;262957;1092;115268;-67
2021/08/04 07:50:33;;;;;;;19.20;8.73;;;;;;;21.58;62.43;98796.94;263090;1093;115920;-65
2021/08/04 07:55:37;;;;;;;342.93;262.57;;;;;;;21.60;62.39;98801.17;262129;1093;114786;-66
2021/08/04 08:00:40;;;;;;;83.93;57.73;;;;;;;21.70;62.83;98795.54;263624;1093;117069;-67
2021/08/04 08:05:44;;;;;;;46.63;32.68;;;;;;;21.82;62.86;98805.01;263349;1092;115025;-67
2021/08/04 08:10:50;;;;;;;26.55;16.38;;;;;;;21.96;62.29;98801.58;263135;1092;115352;-70
2021/08/04 08:15:53;;;;;;;45.47;35.70;;;;;;;22.03;62.01;98801.73;263085;1093;116477;-73
2021/08/04 08:20:57;;;;;;;19.25;10.68;;;;;;;22.12;61.54;98795.27;263306;1092;115302;-67
2021/08/04 08:26:01;;;;;;;156.40;110.63;;;;;;;22.21;61.52;98793.39;263125;1092;115544;-67
2021/08/04 08:31:05;;;;;;;64.78;41.08;;;;;;;22.27;61.42;98792.69;262818;1093;115695;-67
2021/08/04 08:36:08;;;;;;;40.10;26.40;;;;;;;22.29;61.27;98796.09;262821;1092;115683;-66
2021/08/04 08:41:12;;;;;;;21.53;15.10;;;;;;;22.32;61.48;98795.73;263188;1092;115236;-66
2021/08/04 08:46:16;;;;;;;17.03;11.03;;;;;;;22.35;61.11;98795.39;263527;1093;117097;-72
2021/08/04 08:51:22;;;;;;;17.03;11.48;;;;;;;22.34;60.69;98788.25;262798;1091;115199;-71
2021/08/04 08:56:26;;;;;;;17.73;11.53;;;;;;;22.30;60.58;98781.50;263246;1093;115234;-66
2021/08/04 09:01:35;;;;;;;22.80;8.48;;;;;;;22.48;61.58;98774.97;263315;1093;115769;-73
2021/08/04 09:06:44;;;;;;;14.07;8.00;;;;;;;22.66;61.60;98775.56;263638;1093;115431;-69
2021/08/04 09:11:53;;;;;;;14.23;6.07;;;;;;;22.79;61.57;98770.39;263604;1093;115501;-74
2021/08/04 09:17:03;;;;;;;4.73;2.90;;;;;;;22.84;60.77;98769.84;263098;1093;115350;-68
2021/08/04 09:22:16;;;;;;;6.47;3.67;;;;;;;22.76;60.41;98772.59;263594;1093;114833;-68
2021/08/04 09:27:20;;;;;;;9.68;4.43;;;;;;;22.76;60.57;98769.88;263356;1092;116037;-67
2021/08/04 09:32:26;;;;;;;70.57;47.13;;;;;;;22.80;60.27;98769.36;262638;1093;116471;-67
2021/08/04 09:37:30;;;;;;;10.77;5.60;;;;;;;22.83;59.69;98768.16;263490;1092;115505;-68
2021/08/04 09:42:40;;;;;;;8.68;4.98;;;;;;;22.82;58.92;98772.72;261561;1092;115257;-67
2021/08/04 09:48:09;;;;;;;7.43;4.30;;;;;;;22.80;59.48;98766.64;261412;1092;114345;-67
2021/08/04 09:53:20;;;;;;;7.57;3.30;;;;;;;22.79;59.20;98769.52;261355;1092;114775;-66
2021/08/04 09:58:32;;;;;;;5.07;3.27;;;;;;;22.76;58.96;98767.16;261463;1092;114747;-68
2021/08/04 10:03:38;;;;;;;11.17;7.53;;;;;;;22.73;58.76;98764.84;261745;1092;115199;-67
2021/08/04 10:08:53;;;;;;;42.85;31.20;;;;;;;22.74;58.52;98766.52;260952;1093;114683;-68
2021/08/04 10:14:08;;;;;;;6.13;3.40;;;;;;;22.71;57.90;98764.16;262334;1092;114866;-69
2021/08/04 10:19:12;;;;;;;4.57;3.00;;;;;;;22.66;57.57;98770.97;262003;1092;115066;-68
2021/08/04 10:24:17;;;;;;;6.00;3.00;;;;;;;22.63;57.09;98754.22;263067;1093;115002;-69
2021/08/04 10:29:21;;;;;;;56.53;35.83;;;;;;;22.62;56.95;98757.93;262595;1093;114881;-68
2021/08/04 10:34:27;;;;;;;6.27;4.00;;;;;;;22.63;56.83;98757.77;263243;1093;115260;-67
2021/08/04 10:39:31;;;;;;;7.50;4.20;;;;;;;22.66;56.81;98762.84;263677;1093;115729;-68
2021/08/04 10:44:35;;;;;;;4.50;3.00;;;;;;;22.68;56.85;98763.48;263646;1092;115404;-67
2021/08/04 10:49:39;;;;;;;4.67;3.10;;;;;;;22.65;56.91;98758.41;263500;1092;115636;-67
2021/08/04 10:55:04;;;;;;;4.48;2.25;;;;;;;22.74;57.17;98764.64;263578;1091;115729;-69
2021/08/04 11:00:21;;;;;;;5.23;2.50;;;;;;;22.87;56.65;98755.91;263482;1092;115093;-67
2021/08/04 11:05:25;;;;;;;3.60;2.40;;;;;;;22.95;56.79;98752.32;263208;1093;115612;-66
2021/08/04 11:10:39;;;;;;;3.55;2.20;;;;;;;23.06;57.04;98757.31;263012;1093;115015;-68
2021/08/04 11:15:43;;;;;;;4.28;1.90;;;;;;;23.22;56.79;98757.19;263096;1092;115275;-67
2021/08/04 11:21:10;;;;;;;3.70;2.43;;;;;;;23.42;56.52;98748.53;263743;1093;114925;-67
2021/08/04 11:26:30;;;;;;;5.13;2.20;;;;;;;23.70;56.09;98746.89;263806;1092;115004;-65
2021/08/04 11:31:34;;;;;;;2.90;2.10;;;;;;;23.98;56.04;98738.95;263680;1093;115595;-68
2021/08/04 11:36:38;;;;;;;36.27;25.57;;;;;;;24.07;55.22;98736.96;263400;1093;114797;-67
2021/08/04 11:41:45;;;;;;;7.00;3.40;;;;;;;24.12;55.16;98741.82;263740;1093;115634;-66
2021/08/04 11:46:49;;;;;;;5.00;2.83;;;;;;;24.07;55.06;98745.12;263484;1092;114815;-68
2021/08/04 11:52:05;;;;;;;6.73;2.57;;;;;;;24.05;54.71;98736.33;263387;1091;114970;-68
2021/08/04 11:57:25;;;;;;;15.70;12.77;;;;;;;24.07;54.71;98739.68;263108;1093;114997;-70
2021/08/04 12:02:34;;;;;;;4.37;2.23;;;;;;;24.22;54.20;98740.52;263660;1093;115270;-68
2021/08/04 12:07:44;;;;;;;2.77;2.00;;;;;;;24.22;53.53;98734.24;263598;1092;115163;-68
2021/08/04 12:12:52;;;;;;;4.23;1.97;;;;;;;24.17;53.31;98739.39;262931;1092;115466;-67
2021/08/04 12:18:04;;;;;;;5.50;1.80;;;;;;;24.11;53.31;98732.83;263555;1092;115054;-67
2021/08/04 12:23:10;;;;;;;3.20;1.70;;;;;;;24.06;52.67;98718.97;263707;1092;115192;-68
2021/08/04 12:28:13;;;;;;;92.33;73.03;;;;;;;24.08;52.96;98722.33;263225;1092;114848;-68
2021/08/04 12:33:23;;;;;;;6.33;3.50;;;;;;;24.13;52.50;98719.05;263238;1092;115307;-72
2021/08/04 12:38:29;;;;;;;2.43;1.47;;;;;;;24.17;52.21;98723.08;263502;1092;115267;-68
2021/08/04 12:43:43;;;;;;;3.83;1.57;;;;;;;24.23;52.03;98725.88;262847;1092;114707;-68
2021/08/04 12:48:48;;;;;;;1.85;1.60;;;;;;;24.44;51.84;98707.95;263211;1092;114948;-71
2021/08/04 12:54:00;;;;;;;73.68;54.83;;;;;;;24.78;51.94;98694.48;263620;1092;115051;-66
2021/08/04 12:59:07;;;;;;;5.03;4.50;;;;;;;25.05;51.40;98693.89;263174;1093;117428;-63
2021/08/04 13:04:18;;;;;;;3.47;1.87;;;;;;;25.24;50.80;98688.64;263624;1093;115322;-62
2021/08/04 13:09:25;;;;;;;1.43;1.30;;;;;;;25.30;50.26;98680.70;262960;1090;114974;-63
2021/08/04 13:14:29;;;;;;;2.67;1.67;;;;;;;25.13;50.00;98680.99;263401;1091;115631;-67
2021/08/04 13:19:34;;;;;;;;;;;;;;;24.95;50.01;98670.55;262678;1093;115361;-67
2021/08/04 13:24:39;;;;;;;3.20;1.67;;;;;;;24.88;50.16;98680.55;263655;1092;101973;-66
2021/08/04 13:29:42;;;;;;;2.97;1.57;;;;;;;24.85;49.68;98696.44;263471;1093;115589;-73
2021/08/04 13:34:46;;;;;;;6.08;1.95;;;;;;;24.87;49.55;98699.81;263162;1092;115299;-67
2021/08/04 13:39:49;;;;;;;4.00;1.93;;;;;;;24.93;49.67;98712.63;263182;1092;115736;-70
2021/08/04 13:44:53;;;;;;;1.93;1.50;;;;;;;25.14;50.25;98701.77;263163;1093;115829;-73
2021/08/04 13:50:01;;;;;;;5.53;2.78;;;;;;;25.45;49.89;98703.25;263699;1092;114999;-66
2021/08/04 13:55:09;;;;;;;3.13;1.50;;;;;;;25.84;49.47;98693.66;263645;1093;114762;-67
2021/08/04 14:00:16;;;;;;;1.80;1.40;;;;;;;25.87;48.52;98690.53;263230;1093;115039;-68
2021/08/04 14:05:21;;;;;;;3.30;1.70;;;;;;;25.97;48.50;98677.36;263269;1092;115190;-68
2021/08/04 14:10:25;;;;;;;47.20;31.27;;;;;;;26.10;48.08;98690.22;263370;1092;115088;-67
2021/08/04 14:15:30;;;;;;;4.80;2.65;;;;;;;26.22;47.64;98687.73;263621;1092;115197;-65
2021/08/04 14:20:38;;;;;;;4.80;1.60;;;;;;;26.15;47.45;98694.03;263232;1093;115052;-69
2021/08/04 14:25:42;;;;;;;6.03;4.43;;;;;;;25.93;47.28;98700.63;263049;1092;115194;-65
2021/08/04 14:30:46;;;;;;;5.15;1.80;;;;;;;25.70;47.38;98695.44;263143;1092;115308;-68
2021/08/04 14:35:49;;;;;;;3.30;1.67;;;;;;;25.46;47.57;98703.04;262596;1092;115572;-66
2021/08/04 14:40:53;;;;;;;2.27;1.70;;;;;;;25.23;47.48;98694.27;263176;1092;116072;-68
2021/08/04 14:45:57;;;;;;;3.98;1.58;;;;;;;25.03;47.65;98688.63;263292;1092;115564;-67
2021/08/04 14:51:01;;;;;;;18.40;13.38;;;;;;;24.86;47.64;98698.11;263018;1093;115471;-67
2021/08/04 14:56:04;;;;;;;2.80;2.23;;;;;;;24.70;47.80;98707.40;263672;1093;116195;-67
2021/08/04 15:01:08;;;;;;;5.80;1.85;;;;;;;24.56;48.05;98711.86;263650;1092;114602;-58
2021/08/04 15:06:12;;;;;;;8.60;3.53;;;;;;;24.44;48.37;98711.50;263512;1093;115017;-58
2021/08/04 15:11:16;;;;;;;4.28;1.83;;;;;;;24.31;48.58;98714.04;263305;1092;115406;-58
2021/08/04 15:16:20;;;;;;;7.60;2.83;;;;;;;24.22;48.83;98718.77;263267;1091;114622;-58
2021/08/04 15:21:23;;;;;;;24.43;19.30;;;;;;;24.13;49.19;98719.89;263777;1092;115081;-58
2021/08/04 15:26:27;;;;;;;4.95;3.83;;;;;;;24.05;49.34;98718.13;263680;1092;115909;-58
2021/08/04 15:31:32;;;;;;;4.33;3.13;;;;;;;23.95;50.13;98717.58;263656;1093;114899;-57
2021/08/04 15:36:42;;;;;;;8.70;2.80;;;;;;;23.87;50.33;98728.53;263795;1092;115020;-58
2021/08/04 15:41:47;;;;;;;17.80;14.93;;;;;;;23.80;50.68;98720.28;261983;1092;114840;-59
2021/08/04 15:46:53;;;;;;;9.00;3.20;;;;;;;23.74;50.94;98712.91;263457;1092;115680;-60
2021/08/04 15:51:56;;;;;;;4.93;3.45;;;;;;;23.70;51.36;98708.02;263815;1093;115026;-62
2021/08/04 15:57:00;;;;;;;7.78;3.58;;;;;;;23.66;51.57;98718.38;263872;1093;115254;-59
2021/08/04 16:02:04;;;;;;;7.10;3.45;;;;;;;23.63;51.79;98705.17;263934;1092;114927;-61
2021/08/04 16:07:08;;;;;;;8.73;3.55;;;;;;;23.62;52.30;98703.49;263871;1092;115151;-61
2021/08/04 16:12:11;;;;;;;7.50;3.65;;;;;;;23.60;52.34;98703.66;263706;1093;116132;-60
2021/08/04 16:17:15;;;;;;;8.95;3.85;;;;;;;23.59;52.38;98699.27;263902;1093;114700;-58
2021/08/04 16:22:18;;;;;;;8.58;3.45;;;;;;;23.63;52.37;98699.73;263549;1093;116263;-59
2021/08/04 16:27:22;;;;;;;124.38;100.30;;;;;;;23.65;52.34;98692.25;263482;1092;115446;-58
2021/08/04 16:32:27;;;;;;;14.80;10.65;;;;;;;23.63;52.39;98698.90;263720;1093;116063;-58
2021/08/04 16:37:30;;;;;;;13.13;6.43;;;;;;;23.61;52.80;98701.81;263356;1093;115119;-59
2021/08/04 16:42:34;;;;;;;8.95;4.30;;;;;;;23.60;52.89;98702.83;263723;1092;115175;-60
2021/08/04 16:47:39;;;;;;;7.20;3.88;;;;;;;23.57;53.08;98711.34;263687;1092;114993;-60
2021/08/04 16:52:44;;;;;;;5.40;3.67;;;;;;;23.54;53.51;98709.87;263736;1092;114972;-61
2021/08/04 16:57:48;;;;;;;8.08;3.55;;;;;;;23.55;53.42;98718.86;263831;1093;115079;-61
2021/08/04 17:02:52;;;;;;;7.50;4.07;;;;;;;23.53;53.94;98715.47;263858;1091;115047;-60
2021/08/04 17:07:56;;;;;;;7.77;3.80;;;;;;;23.53;54.26;98723.62;264008;1093;115362;-61
2021/08/04 17:13:01;;;;;;;8.08;4.03;;;;;;;23.50;54.38;98719.39;263852;1091;115214;-61
2021/08/04 17:18:05;;;;;;;8.80;3.83;;;;;;;23.50;54.53;98723.98;263746;1092;115191;-59
2021/08/04 17:23:09;;;;;;;8.27;4.23;;;;;;;23.49;54.66;98722.31;263750;1092;115177;-60
2021/08/04 17:28:14;;;;;;;7.03;4.20;;;;;;;23.47;54.74;98730.66;263745;1092;115055;-60
2021/08/04 17:33:18;;;;;;;8.30;5.20;;;;;;;23.43;54.59;98723.88;263763;1093;115188;-59
2021/08/04 17:38:24;;;;;;;11.50;6.10;;;;;;;23.42;54.86;98718.65;263839;1092;115955;-60
2021/08/04 17:43:28;;;;;;;;;;;;;;;23.39;54.88;98717.14;263797;1092;115161;-59
2021/08/04 17:48:32;;;;;;;12.30;6.77;;;;;;;23.33;54.89;98715.16;263974;1092;101473;-61
2021/08/04 17:53:36;;;;;;;9.43;5.30;;;;;;;23.28;54.88;98710.29;263822;1092;115166;-60
2021/08/04 17:58:41;;;;;;;64.45;50.03;;;;;;;23.25;55.20;98717.96;263892;1092;115213;-62
2021/08/04 18:03:45;;;;;;;10.93;7.70;;;;;;;23.22;55.39;98716.45;263842;1093;115026;-62
2021/08/04 18:08:48;;;;;;;181.60;150.45;;;;;;;23.20;55.26;98723.95;263801;1092;115389;-60
2021/08/04 18:13:52;;;;;;;24.85;19.78;;;;;;;23.15;55.31;98729.08;263436;1092;115242;-60
2021/08/04 18:18:56;;;;;;;26.43;15.57;;;;;;;23.08;55.11;98734.39;263803;1092;115007;-59
2021/08/04 18:23:59;;;;;;;12.83;9.13;;;;;;;23.02;55.75;98745.97;263794;1091;115207;-60
2021/08/04 18:29:03;;;;;;;427.23;363.40;;;;;;;22.99;55.83;98749.05;263850;1092;114840;-60
2021/08/04 18:34:07;;;;;;;42.50;31.25;;;;;;;22.98;55.70;98755.52;263757;1093;116026;-60
2021/08/04 18:39:11;;;;;;;24.78;19.23;;;;;;;22.97;55.81;98750.28;263711;1092;115570;-61
2021/08/04 18:44:18;;;;;;;19.18;14.40;;;;;;;22.96;56.12;98757.59;263947;1092;115477;-60
2021/08/04 18:49:24;;;;;;;133.63;116.87;;;;;;;22.94;55.92;98756.07;263871;1092;115086;-61
2021/08/04 18:54:28;;;;;;;21.38;15.58;;;;;;;22.90;56.06;98761.83;263776;1092;115776;-59
2021/08/04 18:59:32;;;;;;;8.45;5.78;;;;;;;22.85;55.77;98769.64;263860;1092;115638;-60
2021/08/04 19:04:36;;;;;;;13.30;4.28;;;;;;;22.73;55.68;98762.13;263601;1092;115139;-65
2021/08/04 19:09:40;;;;;;;8.98;4.05;;;;;;;22.57;55.74;98765.77;263576;1092;115495;-62
2021/08/04 19:14:44;;;;;;;457.05;358.33;;;;;;;22.42;55.94;98757.56;263543;1091;114779;-60
2021/08/04 19:19:48;;;;;;;23.70;18.20;;;;;;;22.32;56.17;98762.36;263553;1093;115775;-60
2021/08/04 19:24:55;;;;;;;10.63;5.43;;;;;;;22.22;56.09;98762.57;263587;1093;115909;-62
2021/08/04 19:29:59;;;;;;;5.10;4.13;;;;;;;22.13;56.57;98758.16;263171;1093;114896;-61
2021/08/04 19:35:04;;;;;;;7.18;3.65;;;;;;;22.02;56.07;98762.11;263717;1092;114938;-60
2021/08/04 19:40:11;;;;;;;6.50;3.50;;;;;;;21.99;56.89;98767.88;263087;1093;114779;-61
2021/08/04 19:45:16;;;;;;;6.70;3.40;;;;;;;21.97;57.24;98759.90;263478;1092;114707;-63
2021/08/04 19:50:24;;;;;;;5.50;3.70;;;;;;;21.96;57.31;98758.22;263540;1093;115175;-59
2021/08/04 19:55:29;;;;;;;8.73;3.30;;;;;;;21.91;57.21;98757.91;263369;1093;115272;-60
2021/08/04 20:00:33;;;;;;;4.28;3.78;;;;;;;21.85;57.29;98749.64;263182;1092;115233;-63
2021/08/04 20:05:37;;;;;;;9.60;3.87;;;;;;;21.77;57.39;98745.06;263412;1092;115480;-62
2021/08/04 20:10:43;;;;;;;6.70;4.13;;;;;;;21.67;57.53;98737.16;263540;1093;115033;-63
2021/08/04 20:15:46;;;;;;;6.13;4.20;;;;;;;21.59;57.94;98737.16;263586;1093;114693;-64
2021/08/04 20:20:50;;;;;;;11.85;4.65;;;;;;;21.51;58.03;98742.61;263428;1093;115285;-63
2021/08/04 20:25:54;;;;;;;8.38;4.75;;;;;;;21.44;58.02;98736.20;263690;1092;115136;-62
2021/08/04 20:30:58;;;;;;;7.20;4.35;;;;;;;21.35;58.26;98738.06;263218;1092;115035;-65
2021/08/04 20:36:02;;;;;;;11.63;4.33;;;;;;;21.25;58.38;98737.36;263368;1093;115318;-61
2021/08/04 20:41:05;;;;;;;9.43;4.40;;;;;;;21.22;58.54;98737.70;263438;1093;115340;-59
2021/08/04 20:46:09;;;;;;;10.45;4.68;;;;;;;21.18;58.77;98739.06;263658;1093;114996;-62
2021/08/04 20:51:14;;;;;;;8.43;4.85;;;;;;;21.18;59.01;98741.77;262868;1093;115431;-61
2021/08/04 20:56:18;;;;;;;8.13;4.50;;;;;;;21.15;59.17;98736.70;263302;1093;115283;-60
2021/08/04 21:01:23;;;;;;;6.90;5.15;;;;;;;21.12;59.24;98737.03;263557;1093;114859;-63
2021/08/04 21:06:27;;;;;;;8.77;5.00;;;;;;;21.07;59.40;98731.30;263323;1092;114828;-61
2021/08/04 21:11:31;;;;;;;7.28;4.55;;;;;;;21.02;59.79;98732.66;263747;1093;114910;-59
2021/08/04 21:16:35;;;;;;;10.78;5.10;;;;;;;20.94;59.86;98724.52;263563;1092;115103;-61
2021/08/04 21:21:38;;;;;;;11.43;6.03;;;;;;;20.89;59.84;98718.79;263318;1093;114906;-59
2021/08/04 21:26:42;;;;;;;12.80;6.20;;;;;;;20.86;60.23;98721.83;263474;1092;115105;-58
2021/08/04 21:31:46;;;;;;;11.10;6.33;;;;;;;20.88;60.55;98722.48;263519;1093;115917;-61
2021/08/04 21:36:49;;;;;;;10.35;6.73;;;;;;;20.89;60.51;98705.27;263577;1092;115146;-62
2021/08/04 21:41:53;;;;;;;11.15;7.13;;;;;;;20.86;60.59;98705.59;263679;1092;115898;-62
2021/08/04 21:46:57;;;;;;;9.13;6.10;;;;;;;20.81;60.46;98716.06;263166;1091;115707;-64
2021/08/04 21:52:00;;;;;;;16.65;7.15;;;;;;;20.73;60.61;98707.95;263262;1093;115776;-63
2021/08/04 21:57:04;;;;;;;10.35;6.50;;;;;;;20.64;60.97;98712.50;263720;1093;115462;-61
2021/08/04 22:02:09;;;;;;;12.58;6.60;;;;;;;20.59;60.75;98709.47;263815;1093;115199;-63
2021/08/04 22:07:15;;;;;;;10.20;6.60;;;;;;;20.57;61.07;98706.07;262791;1093;114784;-60
2021/08/04 22:12:19;;;;;;;;;;;;;;;20.58;61.05;98696.09;263500;1093;115025;-67
2021/08/04 22:17:23;;;;;;;15.30;8.77;;;;;;;20.54;61.30;98698.29;261516;1091;103862;-62
2021/08/04 22:22:29;;;;;;;11.30;8.03;;;;;;;20.52;61.22;98689.52;261184;1093;206046;-59
2021/08/04 22:27:34;;;;;;;10.57;6.93;;;;;;;20.48;61.44;98686.27;262998;1092;115042;-60
2021/08/04 22:32:38;;;;;;;10.93;7.18;;;;;;;20.45;61.90;98681.20;263777;1092;115315;-63
2021/08/04 22:37:50;;;;;;;9.93;6.55;;;;;;;20.43;61.92;98666.99;263163;1092;115232;-59
2021/08/04 22:42:54;;;;;;;10.30;6.30;;;;;;;20.44;62.03;98671.38;262686;1092;114858;-60
2021/08/04 22:48:16;;;;;;;13.73;7.57;;;;;;;20.46;61.68;98660.41;263022;1093;115602;-59
2021/08/04 22:53:21;;;;;;;10.23;7.40;;;;;;;20.45;62.10;98656.87;263494;1093;115197;-58
2021/08/04 22:58:25;;;;;;;11.48;7.65;;;;;;;20.43;62.17;98653.47;263110;1092;115126;-58
2021/08/04 23:03:28;;;;;;;12.48;7.70;;;;;;;20.38;62.26;98649.57;262971;1092;115321;-66
2021/08/04 23:08:32;;;;;;;10.63;7.50;;;;;;;20.30;62.38;98645.01;262443;1092;115135;-61
2021/08/04 23:13:36;;;;;;;8.28;6.40;;;;;;;20.26;62.26;98649.06;263210;1092;116214;-61
2021/08/04 23:18:40;;;;;;;10.58;6.65;;;;;;;20.28;62.77;98633.54;263272;1092;115289;-61